Time;durP1;ratioP1;P1;durP2;ratioP2;P2;SDS_P1;SDS_P2;PMS_P1;PMS_P2;Temp;Humidity;BMP_temperature;BMP_pressure;BME280_temperature;BME280_humidity;BME280_pressure;Samples;Min_cycle;Max_cycle;Signal;HPM_P1;HPM_P2
2022/04/26 03:36:58;;;;;;;0.40;0.30;;;;;;;3.91;89.69;101035.06;5072937;28;20421;-71
2022/04/26 03:39:24;;;;;;;0.40;0.30;;;;;;;3.81;88.70;101035.72;5073407;28;20456;-74
2022/04/26 03:41:50;;;;;;;0.40;0.30;;;;;;;3.83;88.64;101035.47;5073183;28;20815;-71
2022/04/26 03:44:17;;;;;;;0.40;0.30;;;;;;;3.92;88.85;101042.84;5072473;28;20979;-74
2022/04/26 03:46:43;;;;;;;0.40;0.30;;;;;;;3.85;90.09;101046.72;5073013;28;20441;-75
2022/04/26 03:49:10;;;;;;;0.40;0.30;;;;;;;3.73;91.52;101038.81;5072936;28;20524;-75
2022/04/26 03:51:37;;;;;;;0.40;0.30;;;;;;;3.80;91.73;101040.25;5072853;28;20486;-76
2022/04/26 03:54:04;;;;;;;0.40;0.30;;;;;;;3.71;91.04;101036.34;5072775;28;20468;-75
2022/04/26 03:56:30;;;;;;;0.40;0.30;;;;;;;3.74;92.32;101041.22;5072473;28;20492;-75
2022/04/26 03:58:57;;;;;;;0.40;0.30;;;;;;;3.78;93.00;101037.00;5072862;28;20449;-76
2022/04/26 04:01:23;;;;;;;0.40;0.30;;;;;;;3.89;92.51;101035.28;5072514;28;20845;-75
2022/04/26 04:03:50;;;;;;;0.50;0.40;;;;;;;3.90;93.11;101034.25;5072739;28;20461;-71
2022/04/26 04:06:16;;;;;;;0.40;0.30;;;;;;;3.96;93.50;101035.94;5072806;28;20445;-71
2022/04/26 04:08:44;;;;;;;0.40;0.30;;;;;;;4.08;93.43;101040.41;5072760;28;20796;-72
2022/04/26 04:11:10;;;;;;;0.40;0.30;;;;;;;4.10;93.54;101038.28;5072792;28;20437;-72
2022/04/26 04:13:37;;;;;;;0.40;0.30;;;;;;;4.15;93.11;101044.50;5072705;28;20457;-73
2022/04/26 04:16:03;;;;;;;0.40;0.30;;;;;;;4.26;92.97;101042.78;5072524;28;20856;-73
2022/04/26 04:21:14;;;;;;;0.40;0.30;;;;;;;4.32;93.78;101047.16;5072258;28;20523;-73
2022/04/26 04:23:40;;;;;;;0.40;0.30;;;;;;;4.36;94.04;101052.84;5072647;28;20465;-73
2022/04/26 04:26:08;;;;;;;1.10;1.10;;;;;;;4.33;91.49;101059.50;5072467;28;20841;-73
2022/04/26 04:28:35;;;;;;;0.40;0.30;;;;;;;4.34;91.89;101060.31;5072500;28;20492;-74
2022/04/26 04:31:02;;;;;;;0.40;0.30;;;;;;;4.40;91.07;101060.13;5072341;28;20437;-73
2022/04/26 04:33:29;;;;;;;0.40;0.30;;;;;;;4.50;90.23;101057.59;5072391;28;20526;-73
2022/04/26 04:35:55;;;;;;;0.40;0.30;;;;;;;4.49;90.18;101058.66;5072401;28;20488;-73
2022/04/26 04:38:22;;;;;;;0.40;0.30;;;;;;;4.57;90.01;101059.28;5072476;28;20448;-73
2022/04/26 04:40:48;;;;;;;0.40;0.30;;;;;;;4.62;91.27;101062.03;5075970;28;20495;-73
2022/04/26 04:43:16;;;;;;;0.40;0.30;;;;;;;4.64;91.87;101065.25;5075719;28;21033;-73
2022/04/26 04:45:43;;;;;;;0.40;0.30;;;;;;;4.73;92.83;101066.44;5076122;28;20483;-72
2022/04/26 04:48:10;;;;;;;0.40;0.30;;;;;;;4.88;92.87;101065.84;5076031;28;20484;-72
2022/04/26 04:50:37;;;;;;;0.40;0.30;;;;;;;5.03;92.35;101068.66;5076137;28;20441;-72
2022/04/26 04:53:04;;;;;;;0.40;0.30;;;;;;;5.09;91.77;101070.38;5075911;28;20535;-73
2022/04/26 04:55:30;;;;;;;0.40;0.30;;;;;;;5.22;91.21;101078.03;5075850;28;20504;-73
2022/04/26 04:57:56;;;;;;;0.40;0.30;;;;;;;5.26;92.70;101073.75;5075608;28;20445;-71
2022/04/26 05:00:24;;;;;;;0.40;0.30;;;;;;;5.37;93.72;101089.97;5075885;28;20441;-72
2022/04/26 05:02:51;;;;;;;0.40;0.30;;;;;;;5.57;93.94;101082.09;5075612;28;20997;-72
2022/04/26 05:05:17;;;;;;;0.40;0.30;;;;;;;5.72;94.81;101081.44;5075865;28;20441;-72
2022/04/26 05:07:44;;;;;;;0.40;0.30;;;;;;;5.90;94.78;101080.22;5075871;28;20449;-74
2022/04/26 05:10:10;;;;;;;0.40;0.30;;;;;;;6.05;94.78;101075.78;5075936;28;20813;-73
2022/04/26 05:12:36;;;;;;;0.40;0.30;;;;;;;6.22;95.16;101085.59;5075377;28;21001;-73
2022/04/26 05:15:03;;;;;;;0.40;0.30;;;;;;;6.33;95.57;101084.59;5075677;28;20433;-73
2022/04/26 05:17:31;;;;;;;0.40;0.30;;;;;;;6.52;95.46;101095.72;5075325;28;21004;-72
2022/04/26 05:19:59;;;;;;;0.40;0.30;;;;;;;6.67;95.69;101098.47;5075655;28;20448;-74
2022/04/26 05:22:25;;;;;;;0.40;0.30;;;;;;;6.83;95.80;101097.47;5075620;28;20456;-75
2022/04/26 05:24:54;;;;;;;0.40;0.30;;;;;;;6.92;96.04;101097.78;5075845;28;20496;-74
2022/04/26 05:27:21;;;;;;;0.40;0.30;;;;;;;7.05;95.96;101102.69;5077096;28;20445;-74
2022/04/26 05:29:47;;;;;;;0.40;0.30;;;;;;;7.13;95.54;101100.53;5075520;28;20505;-75
2022/04/26 05:32:14;;;;;;;0.40;0.40;;;;;;;7.23;94.42;101105.97;5075267;28;20507;-70
2022/04/26 05:34:41;;;;;;;1.23;1.23;;;;;;;7.34;93.91;101103.00;5074949;28;20967;-70
2022/04/26 05:37:08;;;;;;;0.63;0.63;;;;;;;7.46;93.42;101105.47;5075160;28;20473;-71
2022/04/26 05:39:34;;;;;;;0.40;0.30;;;;;;;7.55;92.85;101101.16;5074938;28;20837;-70
2022/04/26 05:42:01;;;;;;;0.40;0.30;;;;;;;7.71;92.33;101110.09;5075241;28;20449;-71
2022/04/26 05:44:27;;;;;;;0.40;0.30;;;;;;;7.81;92.28;101107.38;5075184;28;20445;-70
2022/04/26 05:46:53;;;;;;;0.40;0.30;;;;;;;7.92;91.79;101107.38;5075158;28;20792;-71
2022/04/26 05:49:20;;;;;;;0.50;0.40;;;;;;;8.04;91.20;101105.22;5075237;28;20446;-71
2022/04/26 05:51:49;;;;;;;0.40;0.30;;;;;;;8.16;90.51;101104.94;5074119;28;20446;-73
2022/04/26 05:54:15;;;;;;;0.40;0.30;;;;;;;8.28;90.02;101111.69;5074918;28;20461;-70
2022/04/26 05:56:42;;;;;;;0.40;0.30;;;;;;;8.41;89.57;101112.22;5074951;28;20481;-75
2022/04/26 05:59:08;;;;;;;0.40;0.30;;;;;;;8.52;89.09;101106.53;5074999;28;20441;-73
2022/04/26 06:01:35;;;;;;;0.40;0.30;;;;;;;8.64;87.78;101119.72;5074782;28;20475;-68
2022/04/26 06:04:01;;;;;;;0.50;0.30;;;;;;;8.78;87.00;101126.16;5074428;28;20888;-68
2022/04/26 06:06:28;;;;;;;0.40;0.30;;;;;;;8.89;85.81;101121.50;5074751;28;20433;-77
2022/04/26 06:08:55;;;;;;;1.13;0.83;;;;;;;9.02;85.28;101122.81;5074839;28;20464;-76
2022/04/26 06:11:22;;;;;;;0.40;0.30;;;;;;;9.09;85.05;101129.53;5074978;28;20437;-74
2022/04/26 06:13:49;;;;;;;0.40;0.30;;;;;;;9.21;83.71;101122.97;5074739;28;20498;-77
2022/04/26 06:16:15;;;;;;;0.40;0.30;;;;;;;9.32;82.77;101117.25;5075039;28;20571;-75
2022/04/26 06:18:42;;;;;;;0.53;0.53;;;;;;;9.37;80.20;101111.00;5075337;28;20946;-76
2022/04/26 06:21:08;;;;;;;0.40;0.30;;;;;;;9.51;80.53;101120.09;5075256;28;20476;-76
2022/04/26 06:23:35;;;;;;;0.40;0.30;;;;;;;9.64;78.69;101113.25;5074682;28;20469;-74
2022/04/26 06:26:03;;;;;;;0.40;0.30;;;;;;;9.75;77.07;101114.81;5074640;28;20437;-76
2022/04/26 06:28:30;;;;;;;0.40;0.30;;;;;;;9.82;76.79;101117.19;5074881;28;20855;-75
2022/04/26 06:30:56;;;;;;;0.40;0.20;;;;;;;9.86;76.67;101116.34;5074249;28;20437;-75
2022/04/26 06:33:23;;;;;;;4.23;3.93;;;;;;;9.94;75.85;101116.84;5074157;28;20515;-75
2022/04/26 06:35:50;;;;;;;0.40;0.30;;;;;;;10.07;75.60;101114.28;5074299;28;20486;-74
2022/04/26 06:38:17;;;;;;;0.50;0.40;;;;;;;10.17;75.15;101112.56;5074121;28;20823;-74
2022/04/26 06:40:45;;;;;;;0.40;0.30;;;;;;;10.24;73.70;101123.88;5074175;28;20502;-75
2022/04/26 06:43:13;;;;;;;0.40;0.30;;;;;;;10.37;73.02;101117.81;5073942;28;20480;-76
2022/04/26 06:45:39;;;;;;;0.40;0.30;;;;;;;10.46;72.53;101126.94;5073682;28;20851;-71
2022/04/26 06:48:07;;;;;;;0.40;0.30;;;;;;;10.55;71.75;101116.28;5073854;28;20444;-70
2022/04/26 06:50:34;;;;;;;0.40;0.30;;;;;;;10.65;70.89;101118.88;5073814;28;20437;-74
2022/04/26 06:53:01;;;;;;;0.40;0.30;;;;;;;10.71;70.92;101116.91;5073997;28;20461;-74
2022/04/26 06:55:27;;;;;;;0.40;0.30;;;;;;;10.79;70.07;101118.97;5073761;28;20477;-74
2022/04/26 06:57:54;;;;;;;0.40;0.30;;;;;;;10.83;67.66;101123.53;5073771;28;20445;-74
2022/04/26 07:00:22;;;;;;;0.40;0.30;;;;;;;10.95;67.08;101116.91;5073715;28;20452;-74
2022/04/26 07:02:48;;;;;;;0.40;0.30;;;;;;;11.06;66.21;101129.22;5073825;28;20465;-73
2022/04/26 07:05:16;;;;;;;0.40;0.30;;;;;;;11.11;65.93;101121.84;5073570;28;20445;-72
2022/04/26 07:07:48;;;;;;;0.40;0.20;;;;;;;11.15;65.79;101121.25;5073586;28;20438;-73
2022/04/26 07:10:15;;;;;;;0.40;0.30;;;;;;;11.27;64.50;101119.72;5073598;28;20425;-73
2022/04/26 07:12:42;;;;;;;0.50;0.40;;;;;;;11.30;62.47;101118.34;5073452;28;20522;-74
2022/04/26 07:15:09;;;;;;;0.40;0.30;;;;;;;11.33;61.49;101121.28;5073754;28;20823;-73
2022/04/26 07:17:40;;;;;;;0.40;0.30;;;;;;;11.41;61.41;101125.22;5073653;28;20488;-73
2022/04/26 07:20:09;;;;;;;0.40;0.30;;;;;;;11.28;57.36;101129.47;5073146;28;20911;-73
2022/04/26 07:22:36;;;;;;;0.40;0.30;;;;;;;11.35;57.78;101134.53;5073244;28;20464;-73
2022/04/26 07:25:03;;;;;;;0.40;0.30;;;;;;;11.33;56.04;101140.25;5073068;28;20930;-73
2022/04/26 07:27:29;;;;;;;0.40;0.30;;;;;;;11.44;56.54;101131.97;5073102;28;20814;-73
2022/04/26 07:29:56;;;;;;;0.40;0.30;;;;;;;11.36;54.16;101128.81;5073377;28;20500;-73
2022/04/26 07:34:20;;;;;;;0.40;0.30;;;;;;;11.40;54.59;101134.47;5073024;28;20556;-73
2022/04/26 07:35:11;;;;;;;0.40;0.30;;;;;;;11.42;54.98;101128.72;5072775;28;20530;-72
2022/04/26 07:37:38;;;;;;;0.40;0.30;;;;;;;11.56;55.35;101135.06;5072978;28;20841;-73
2022/04/26 07:40:06;;;;;;;0.40;0.30;;;;;;;11.66;54.78;101137.63;5073006;28;20804;-72
2022/04/26 07:42:32;;;;;;;0.40;0.30;;;;;;;11.74;54.12;101142.38;5073167;28;20489;-73
2022/04/26 07:45:00;;;;;;;0.40;0.30;;;;;;;11.78;53.22;101140.69;5073100;28;20449;-70
2022/04/26 07:47:27;;;;;;;0.40;0.30;;;;;;;11.88;52.88;101139.75;5072963;28;20935;-73
2022/04/26 07:49:54;;;;;;;0.40;0.30;;;;;;;11.99;52.21;101141.19;5073303;28;20465;-75
2022/04/26 07:52:23;;;;;;;0.40;0.30;;;;;;;12.00;51.42;101142.00;5073012;28;20461;-75
2022/04/26 07:54:49;;;;;;;0.40;0.30;;;;;;;12.08;51.10;101141.31;5072868;28;20437;-74
2022/04/26 07:57:16;;;;;;;0.40;0.30;;;;;;;12.14;50.07;101145.56;5072853;28;20490;-75
2022/04/26 07:59:42;;;;;;;0.40;0.30;;;;;;;12.21;49.12;101148.69;5072879;28;20442;-75
2022/04/26 08:02:10;;;;;;;0.40;0.30;;;;;;;12.26;50.09;101153.22;5072652;28;20824;-75
2022/04/26 08:04:36;;;;;;;0.40;0.30;;;;;;;12.43;49.56;101149.94;5072639;28;20444;-75
2022/04/26 08:07:03;;;;;;;0.40;0.30;;;;;;;12.46;48.14;101155.59;5072784;28;20449;-75
2022/04/26 08:09:35;;;;;;;0.40;0.30;;;;;;;12.47;49.31;101154.47;5072461;28;20471;-74
2022/04/26 08:12:01;;;;;;;0.40;0.27;;;;;;;12.53;48.88;101157.94;5072725;28;21121;-74
2022/04/26 08:14:29;;;;;;;0.40;0.30;;;;;;;12.50;49.78;101163.97;5074610;28;20452;-75
2022/04/26 08:16:55;;;;;;;0.40;0.20;;;;;;;12.54;49.78;101156.81;5076667;28;20485;-75
2022/04/26 08:19:22;;;;;;;0.40;0.30;;;;;;;12.59;48.94;101159.44;5076804;28;20485;-71
2022/04/26 08:21:48;;;;;;;0.40;0.30;;;;;;;12.49;47.76;101160.44;5076837;28;20452;-73
2022/04/26 08:29:44;;;;;;;0.40;0.30;;;;;;;12.49;49.20;101162.34;5076540;28;20404;-74
2022/04/26 08:32:10;;;;;;;2.40;2.30;;;;;;;12.57;48.90;101167.06;5076222;28;20469;-75
2022/04/26 08:34:37;;;;;;;0.40;0.30;;;;;;;12.67;49.33;101171.53;5076190;28;20469;-75
2022/04/26 08:37:03;;;;;;;0.40;0.30;;;;;;;12.73;48.13;101170.31;5076292;28;20480;-74
2022/04/26 08:39:30;;;;;;;4.80;4.43;;;;;;;12.93;51.17;101169.94;5076568;28;20468;-74
2022/04/26 08:41:58;;;;;;;0.40;0.30;;;;;;;13.02;49.84;101179.00;5076348;28;20444;-74
2022/04/26 08:44:28;;;;;;;0.40;0.30;;;;;;;13.23;52.58;101176.69;5076228;28;20482;-74
2022/04/26 08:52:23;;;;;;;0.40;0.30;;;;;;;13.56;49.45;101173.81;5075846;28;20516;-74
2022/04/26 08:54:50;;;;;;;0.40;0.27;;;;;;;13.71;48.60;101176.19;5076189;28;20780;-73
2022/04/26 08:57:17;;;;;;;0.40;0.20;;;;;;;13.75;46.52;101176.38;5075975;28;21080;-74
2022/04/26 08:59:48;;;;;;;0.40;0.30;;;;;;;13.85;48.79;101179.66;5075869;28;20441;-73
2022/04/26 09:02:18;;;;;;;0.40;0.30;;;;;;;13.99;48.10;101178.78;5075765;28;20444;-73
2022/04/26 09:04:45;;;;;;;0.40;0.30;;;;;;;13.98;46.81;101178.00;5075553;28;20795;-73
2022/04/26 09:07:12;;;;;;;0.40;0.30;;;;;;;13.95;45.73;101184.09;5075562;28;20476;-74
2022/04/26 09:09:40;;;;;;;0.40;0.30;;;;;;;14.05;47.98;101178.38;5075954;28;20469;-73
2022/04/26 09:12:10;;;;;;;0.40;0.30;;;;;;;14.19;47.08;101181.03;5075712;28;20528;-74
2022/04/26 09:14:39;;;;;;;0.40;0.30;;;;;;;14.22;46.76;101179.63;5075458;28;20947;-74
2022/04/26 09:17:09;;;;;;;0.40;0.30;;;;;;;14.27;49.16;101180.28;5075681;28;20481;-74
2022/04/26 09:19:47;;;;;;;0.40;0.30;;;;;;;14.33;47.29;101184.47;5075721;28;20449;-74
2022/04/26 09:22:18;;;;;;;0.40;0.30;;;;;;;14.48;47.38;101175.16;5074943;28;20880;-74
2022/04/26 09:24:56;;;;;;;0.40;0.30;;;;;;;14.58;47.12;101180.34;5075293;28;20449;-73
2022/04/26 09:27:23;;;;;;;0.40;0.30;;;;;;;14.67;47.42;101177.66;5074872;28;20459;-74
2022/04/26 09:29:49;;;;;;;0.40;0.30;;;;;;;14.74;47.26;101180.75;5075106;28;21022;-74
2022/04/26 09:32:17;;;;;;;0.40;0.30;;;;;;;14.79;46.69;101177.88;5074686;28;20449;-74
2022/04/26 09:34:43;;;;;;;0.40;0.30;;;;;;;14.81;47.09;101172.91;5075183;28;20441;-74
2022/04/26 09:37:10;;;;;;;0.40;0.30;;;;;;;14.85;46.76;101179.34;5075069;28;20843;-74
2022/04/26 09:39:39;;;;;;;0.40;0.27;;;;;;;14.84;45.86;101172.28;5075266;28;20452;-74
2022/04/26 09:42:06;;;;;;;0.40;0.30;;;;;;;14.77;46.54;101171.91;5075152;28;20449;-74
2022/04/26 09:44:34;;;;;;;0.40;0.30;;;;;;;14.83;45.15;101172.56;5075133;28;20445;-74
2022/04/26 09:47:02;;;;;;;0.40;0.30;;;;;;;14.92;45.63;101165.25;5075208;28;20869;-74
2022/04/26 09:49:37;;;;;;;0.40;0.30;;;;;;;14.93;45.92;101163.31;5075095;28;20433;-74
2022/04/26 09:52:06;;;;;;;0.40;0.20;;;;;;;14.95;45.63;101166.53;5074902;28;20452;-74
2022/04/26 09:54:32;;;;;;;1.93;1.80;;;;;;;15.01;45.08;101170.72;5075004;28;20441;-74
2022/04/26 09:56:59;;;;;;;0.40;0.20;;;;;;;15.11;44.36;101170.44;5074876;28;20477;-75
2022/04/26 09:59:28;;;;;;;0.40;0.20;;;;;;;15.11;44.15;101170.44;5074577;28;20822;-75
2022/04/26 10:01:56;;;;;;;0.40;0.30;;;;;;;15.07;43.94;101164.00;5074886;28;20444;-74
2022/04/26 10:04:24;;;;;;;0.40;0.30;;;;;;;15.19;45.48;101171.59;5074615;28;20457;-75
2022/04/26 10:06:57;;;;;;;0.40;0.30;;;;;;;15.23;42.65;101173.38;5075012;28;20448;-75
2022/04/26 10:09:25;;;;;;;0.40;0.30;;;;;;;15.32;44.59;101173.38;5074634;28;20440;-73
2022/04/26 10:11:56;;;;;;;0.40;0.20;;;;;;;15.37;44.05;101168.56;5074330;28;20962;-74
2022/04/26 10:14:24;;;;;;;0.40;0.30;;;;;;;15.45;44.02;101168.88;5074826;28;20453;-74
2022/04/26 10:16:51;;;;;;;0.40;0.30;;;;;;;15.45;43.75;101166.16;5074966;28;20516;-75
2022/04/26 10:19:17;;;;;;;0.40;0.20;;;;;;;15.48;43.15;101162.78;5074431;28;20449;-73
2022/04/26 10:21:47;;;;;;;0.40;0.30;;;;;;;15.56;44.45;101176.44;5074489;28;20809;-72
2022/04/26 10:24:19;;;;;;;0.40;0.20;;;;;;;15.70;43.85;101173.59;5074188;28;20465;-74
2022/04/26 10:26:45;;;;;;;0.40;0.30;;;;;;;15.81;43.68;101172.16;5074129;28;20999;-74
2022/04/26 10:29:18;;;;;;;0.40;0.30;;;;;;;15.79;41.37;101166.19;5073928;28;20448;-73
2022/04/26 10:31:46;;;;;;;0.40;0.30;;;;;;;15.82;42.33;101172.97;5073953;28;20456;-75
2022/04/26 10:34:34;;;;;;;0.40;0.30;;;;;;;15.86;43.17;101165.72;5073778;28;20479;-74
2022/04/26 10:37:03;;;;;;;0.40;0.30;;;;;;;15.93;42.86;101168.75;5073432;28;20470;-77
2022/04/26 10:39:36;;;;;;;0.40;0.30;;;;;;;16.13;41.88;101162.63;5075878;28;20445;-77
2022/04/26 10:42:04;;;;;;;0.40;0.20;;;;;;;16.27;42.73;101164.38;5076005;28;20456;-77
2022/04/26 10:44:42;;;;;;;0.40;0.30;;;;;;;16.46;44.40;101164.00;5075232;28;20438;-77
2022/04/26 10:47:36;;;;;;;0.40;0.20;;;;;;;16.52;39.78;101163.50;5076183;28;20922;-77
2022/04/26 10:50:06;;;;;;;0.40;0.30;;;;;;;16.52;38.37;101170.91;5074564;28;20430;-76
2022/04/26 10:52:44;;;;;;;0.77;0.73;;;;;;;16.65;38.89;101158.97;5074440;28;20500;-73
2022/04/26 10:55:16;;;;;;;0.50;0.40;;;;;;;16.68;40.42;101169.22;5073926;28;20434;-70
2022/04/26 10:57:51;;;;;;;0.40;0.30;;;;;;;16.82;40.51;101172.63;5073783;28;20485;-75
2022/04/26 11:00:21;;;;;;;0.40;0.20;;;;;;;16.92;39.78;101165.16;5073536;28;20966;-76
2022/04/26 11:02:50;;;;;;;0.40;0.20;;;;;;;17.01;40.19;101160.44;5073704;28;20461;-76
2022/04/26 11:05:18;;;;;;;0.40;0.30;;;;;;;17.17;39.97;101163.41;5073690;28;20450;-75
2022/04/26 11:07:46;;;;;;;0.40;0.30;;;;;;;17.42;40.52;101172.59;5073799;28;20470;-76
2022/04/26 11:10:13;;;;;;;0.40;0.30;;;;;;;17.61;39.67;101170.19;5073261;28;21015;-75
2022/04/26 11:12:43;;;;;;;0.40;0.30;;;;;;;17.86;37.56;101171.94;5073572;28;20497;-76
2022/04/26 11:15:12;;;;;;;0.40;0.30;;;;;;;18.31;35.34;101170.38;5073745;28;20457;-77
2022/04/26 11:17:39;;;;;;;0.40;0.30;;;;;;;18.72;35.17;101174.16;5073926;28;20477;-77
2022/04/26 11:20:12;;;;;;;0.40;0.30;;;;;;;19.86;34.52;101180.44;5075189;28;20445;-77
2022/04/26 11:22:50;;;;;;;0.40;0.30;;;;;;;21.42;33.00;101183.66;5073727;28;20523;-76
2022/04/26 11:28:09;;;;;;;0.40;0.30;;;;;;;23.35;28.37;101187.22;5074873;28;20413;-77
2022/04/26 11:30:37;;;;;;;0.40;0.20;;;;;;;22.56;27.18;101192.63;5073130;28;20906;-75
2022/04/26 11:33:06;;;;;;;0.40;0.30;;;;;;;22.81;29.13;101193.06;5073178;28;20488;-74
2022/04/26 11:35:34;;;;;;;0.40;0.27;;;;;;;22.82;26.72;101184.41;5073698;28;20452;-78
2022/04/26 11:38:05;;;;;;;0.40;0.30;;;;;;;23.62;28.59;101192.72;5073994;28;20485;-76
2022/04/26 11:40:34;;;;;;;0.40;0.30;;;;;;;24.45;28.28;101186.22;5073436;28;20515;-76
2022/04/26 11:43:11;;;;;;;0.40;0.20;;;;;;;25.36;28.49;101187.31;5073556;28;20484;-76
2022/04/26 11:45:39;;;;;;;0.40;0.30;;;;;;;25.91;28.23;101188.00;5073564;28;20422;-76
2022/04/26 11:48:09;;;;;;;0.40;0.30;;;;;;;26.31;26.48;101194.47;5072554;28;20445;-77
2022/04/26 11:50:36;;;;;;;0.40;0.30;;;;;;;26.83;26.23;101189.38;5073342;28;20446;-77
2022/04/26 11:53:05;;;;;;;0.40;0.30;;;;;;;26.88;24.80;101197.31;5073844;28;20469;-77
2022/04/26 11:55:34;;;;;;;0.40;0.30;;;;;;;25.82;24.99;101189.56;5075205;28;20445;-78
2022/04/26 11:58:13;;;;;;;0.40;0.30;;;;;;;26.09;24.51;101195.59;5073878;28;20493;-78
2022/04/26 12:00:56;;;;;;;0.40;0.30;;;;;;;27.14;24.36;101193.34;5072949;28;20425;-74
2022/04/26 12:03:25;;;;;;;0.50;0.50;;;;;;;27.57;24.43;101193.22;5072994;28;20465;-73
2022/04/26 12:05:55;;;;;;;0.40;0.30;;;;;;;28.07;24.28;101198.63;5073275;28;20961;-76
2022/04/26 12:08:22;;;;;;;0.40;0.30;;;;;;;28.14;24.42;101198.56;5073799;28;20550;-75
2022/04/26 12:10:49;;;;;;;0.40;0.30;;;;;;;28.28;24.23;101196.91;5072926;28;20499;-75
2022/04/26 12:13:28;;;;;;;0.40;0.30;;;;;;;28.11;23.94;101198.59;5072629;28;21001;-75
2022/04/26 12:15:55;;;;;;;0.40;0.30;;;;;;;28.32;25.22;101190.09;5073226;28;20432;-75
2022/04/26 12:18:22;;;;;;;0.40;0.30;;;;;;;27.97;24.08;101193.88;5072894;28;20478;-75
2022/04/26 12:21:00;;;;;;;0.40;0.30;;;;;;;26.69;24.30;101192.16;5072960;28;20445;-76
2022/04/26 12:23:28;;;;;;;1.17;0.77;;;;;;;26.46;25.07;101195.31;5072735;28;20460;-74
2022/04/26 12:25:56;;;;;;;0.50;0.50;;;;;;;26.73;24.37;101192.94;5072900;28;20927;-77
2022/04/26 12:28:24;;;;;;;0.50;0.40;;;;;;;27.66;24.01;101190.00;5073025;28;20942;-77
2022/04/26 12:30:51;;;;;;;0.40;0.30;;;;;;;28.22;23.29;101190.97;5072868;28;20441;-77
2022/04/26 12:33:29;;;;;;;0.40;0.30;;;;;;;28.20;21.76;101182.25;5073653;28;20468;-77
2022/04/26 12:36:01;;;;;;;0.40;0.30;;;;;;;28.72;22.73;101187.84;5074672;28;20445;-78
2022/04/26 12:38:28;;;;;;;1.77;1.67;;;;;;;29.39;23.13;101186.41;5074170;28;20489;-77
2022/04/26 12:41:02;;;;;;;0.40;0.30;;;;;;;29.88;23.59;101187.06;5080785;28;20444;-78
2022/04/26 12:43:32;;;;;;;0.40;0.30;;;;;;;29.69;21.58;101176.53;5078712;28;20479;-77
2022/04/26 12:46:00;;;;;;;0.40;0.30;;;;;;;29.71;23.27;101176.91;5074214;28;20441;-76
2022/04/26 12:51:20;;;;;;;0.40;0.30;;;;;;;30.58;22.85;101188.44;5074678;28;20456;-78
2022/04/26 12:53:47;;;;;;;0.40;0.30;;;;;;;30.78;21.59;101178.16;5074028;28;20522;-77
2022/04/26 12:56:14;;;;;;;0.50;0.40;;;;;;;30.66;20.58;101173.13;5074258;28;20430;-77
2022/04/26 12:58:44;;;;;;;0.40;0.20;;;;;;;30.33;20.14;101181.25;5074110;28;20492;-77
2022/04/26 13:01:12;;;;;;;0.40;0.30;;;;;;;29.39;21.61;101178.03;5076168;28;20436;-77
2022/04/26 13:03:39;;;;;;;0.40;0.30;;;;;;;29.04;23.89;101164.47;5076718;28;20468;-77
2022/04/26 13:06:09;;;;;;;0.40;0.30;;;;;;;29.37;24.75;101168.50;5076493;28;20446;-77
2022/04/26 13:08:36;;;;;;;0.40;0.30;;;;;;;29.98;24.49;101167.78;5076349;28;20440;-77
2022/04/26 13:11:04;;;;;;;0.40;0.30;;;;;;;29.98;22.75;101160.19;5077512;28;20468;-77
2022/04/26 13:13:31;;;;;;;0.40;0.30;;;;;;;29.50;21.14;101154.81;5076833;28;20469;-77
2022/04/26 13:15:59;;;;;;;0.40;0.30;;;;;;;29.37;24.70;101160.94;5075904;28;20441;-74
2022/04/26 13:18:25;;;;;;;0.50;0.50;;;;;;;29.41;24.69;101161.69;5075680;28;20551;-76
2022/04/26 13:20:53;;;;;;;0.40;0.30;;;;;;;28.96;28.55;101151.81;5075792;28;20536;-72
2022/04/26 13:23:20;;;;;;;0.47;0.40;;;;;;;27.82;26.50;101148.63;5075607;28;20470;-71
2022/04/26 13:25:46;;;;;;;0.40;0.30;;;;;;;26.70;28.55;101146.50;5076273;28;20507;-76
2022/04/26 13:28:12;;;;;;;0.40;0.30;;;;;;;25.45;29.03;101135.06;5075782;28;20437;-76
2022/04/26 13:30:40;;;;;;;0.40;0.30;;;;;;;24.45;30.30;101139.13;5075811;28;20822;-77
2022/04/26 13:33:08;;;;;;;0.40;0.30;;;;;;;24.19;31.39;101138.06;5075662;28;20469;-77
2022/04/26 13:35:35;;;;;;;0.40;0.30;;;;;;;25.10;33.32;101142.03;5076281;28;20467;-77
2022/04/26 13:38:02;;;;;;;0.40;0.30;;;;;;;25.89;26.47;101134.06;5075491;28;20477;-77
2022/04/26 13:40:28;;;;;;;0.40;0.30;;;;;;;26.11;27.56;101135.69;5075220;28;20437;-76
2022/04/26 13:42:56;;;;;;;0.40;0.30;;;;;;;26.73;25.78;101142.13;5075836;28;20488;-77
2022/04/26 13:45:22;;;;;;;0.40;0.30;;;;;;;26.95;25.25;101135.34;5076084;28;20495;-77
2022/04/26 13:47:49;;;;;;;0.40;0.30;;;;;;;26.13;26.58;101140.88;5075846;28;20445;-77
2022/04/26 13:50:17;;;;;;;0.40;0.30;;;;;;;24.83;25.69;101132.28;5075119;28;20934;-77
2022/04/26 13:52:44;;;;;;;0.40;0.30;;;;;;;23.85;28.47;101129.78;5075209;28;20473;-76
2022/04/26 13:55:15;;;;;;;0.40;0.30;;;;;;;22.89;30.64;101128.47;5075097;28;20957;-76
2022/04/26 13:57:43;;;;;;;0.40;0.30;;;;;;;22.13;29.99;101131.97;5075162;28;20421;-76
2022/04/26 14:00:11;;;;;;;0.40;0.30;;;;;;;21.39;28.75;101123.75;5075355;28;20441;-76
2022/04/26 14:02:38;;;;;;;0.40;0.30;;;;;;;20.83;29.90;101126.00;5074850;28;20497;-76
2022/04/26 14:05:05;;;;;;;0.40;0.30;;;;;;;20.55;31.96;101120.63;5074576;28;20947;-76
2022/04/26 14:07:33;;;;;;;0.40;0.30;;;;;;;20.31;34.72;101116.81;5074539;28;20939;-76
2022/04/26 14:09:59;;;;;;;0.40;0.20;;;;;;;20.00;33.77;101116.78;5074817;28;20456;-76
2022/04/26 14:12:26;;;;;;;0.40;0.30;;;;;;;19.75;32.58;101116.91;5073874;28;20519;-76
2022/04/26 14:23:05;;;;;;;0.40;0.30;;;;;;;18.99;34.38;101112.25;5074381;28;20445;-74
2022/04/26 14:25:32;;;;;;;0.40;0.30;;;;;;;18.72;33.07;101117.31;5074468;28;20442;-75
2022/04/26 14:27:58;;;;;;;0.40;0.30;;;;;;;18.78;34.38;101113.22;5075475;28;20468;-78
2022/04/26 14:30:25;;;;;;;0.40;0.30;;;;;;;18.72;32.98;101114.56;5075495;28;20450;-75
2022/04/26 14:32:54;;;;;;;0.40;0.23;;;;;;;18.65;32.17;101117.88;5074043;28;20493;-73
2022/04/26 14:35:20;;;;;;;0.40;0.20;;;;;;;18.32;31.15;101117.13;5074080;28;20459;-71
2022/04/26 14:37:48;;;;;;;0.40;0.30;;;;;;;18.29;31.88;101109.59;5074367;28;20480;-75
2022/04/26 14:40:16;;;;;;;0.40;0.30;;;;;;;18.20;31.16;101112.44;5073893;28;20934;-75
2022/04/26 14:42:45;;;;;;;0.40;0.20;;;;;;;18.10;31.36;101116.41;5073976;28;20830;-76
2022/04/26 14:45:11;;;;;;;0.40;0.30;;;;;;;18.03;31.48;101109.88;5074469;28;20452;-76
2022/04/26 14:47:38;;;;;;;0.40;0.30;;;;;;;17.88;31.84;101109.38;5073741;28;20847;-76
2022/04/26 14:50:08;;;;;;;0.40;0.30;;;;;;;17.80;32.27;101113.00;5074250;28;20437;-76
2022/04/26 14:52:36;;;;;;;0.40;0.30;;;;;;;17.83;31.57;101115.06;5073596;28;21001;-76
2022/04/26 14:55:04;;;;;;;0.40;0.30;;;;;;;17.78;31.29;101106.25;5073820;28;20935;-77
2022/04/26 14:57:31;;;;;;;0.40;0.20;;;;;;;17.69;31.63;101106.28;5073905;28;20467;-75
2022/04/26 14:59:58;;;;;;;0.40;0.30;;;;;;;17.57;31.89;101111.72;5073689;28;20491;-76
2022/04/26 15:02:24;;;;;;;0.40;0.27;;;;;;;17.54;32.37;101115.16;5073892;28;20464;-75
2022/04/26 15:04:51;;;;;;;0.40;0.23;;;;;;;17.34;31.71;101112.06;5073651;28;20449;-74
2022/04/26 15:07:18;;;;;;;0.40;0.30;;;;;;;17.40;32.05;101110.75;5074037;28;20460;-76
2022/04/26 15:09:45;;;;;;;0.40;0.30;;;;;;;17.38;32.70;101109.47;5073517;28;20441;-75
2022/04/26 15:17:44;;;;;;;0.40;0.30;;;;;;;17.49;34.70;101113.41;5073370;28;20439;-75
2022/04/26 15:20:13;;;;;;;0.40;0.30;;;;;;;17.56;35.81;101113.66;5073175;28;20899;-75
2022/04/26 15:22:40;;;;;;;0.40;0.30;;;;;;;17.53;35.93;101119.81;5073162;28;20555;-74
2022/04/26 15:25:09;;;;;;;0.40;0.30;;;;;;;17.52;35.85;101112.72;5073526;28;20449;-75
2022/04/26 15:27:36;;;;;;;0.40;0.20;;;;;;;17.57;36.26;101120.72;5073751;28;20449;-74
2022/04/26 15:30:06;;;;;;;0.40;0.20;;;;;;;17.43;34.76;101122.16;5073359;28;20544;-75
2022/04/26 15:32:33;;;;;;;0.40;0.30;;;;;;;17.69;35.63;101122.75;5072858;28;20473;-74
2022/04/26 15:35:00;;;;;;;0.40;0.30;;;;;;;17.96;36.10;101117.84;5073352;28;20441;-75
2022/04/26 15:37:27;;;;;;;0.40;0.30;;;;;;;18.07;35.21;101122.56;5073276;28;20440;-75
2022/04/26 15:39:55;;;;;;;0.40;0.30;;;;;;;18.20;36.50;101123.41;5072906;28;20846;-75